Aviation Digital Data Service (ADDS)

Output produced by METARs form (1353 UTC 24 August 2019)
found at http://www.aviationweather.gov/metar/data/
 
METAR text: CYYH 240200Z 24027G36KT 8SM -SHRA FEW010 SCT011 BKN012 BKN015 BKN020 05/04 A2932 RMK SC1SC2SC2SC1SC1 LAST OBS NXT OBS AT 1500Z SLP931
Conditions at: CYYH (SPENCE BAY AIRPO, NU, CA) observed 0200 UTC 24 August 2019
Temperature: 5.0°C (41°F)
Dewpoint: 4.0°C (39°F) [RH = 93%]
Pressure (altimeter): 29.32 inches Hg (993.0 mb)
[Sea-level pressure:  993.1 mb]
Winds: from the WSW (240 degrees) at 31 MPH (27 knots; 13.9 m/s)
gusting to 41 MPH (36 knots; 18.5 m/s)
Visibility: 8 miles (13 km)
Ceiling: 1200 feet AGL
Clouds: few clouds at 1000 feet AGL
scattered clouds at 1100 feet AGL
broken clouds at 1200 feet AGL
broken clouds at 1500 feet AGL
Weather: -SHRA  (light rain showers)

METAR text: CYYH 240100Z 24026G39KT 10SM -SHRA FEW008 SCT010 BKN014 BKN015 BKN022 06/05 A2930 RMK SC1SC2SC3SC1SC1 SC TR SLP926
Conditions at: CYYH (SPENCE BAY AIRPO, NU, CA) observed 0100 UTC 24 August 2019
Temperature: 6.0°C (43°F)
Dewpoint: 5.0°C (41°F) [RH = 93%]
Pressure (altimeter): 29.30 inches Hg (992.3 mb)
[Sea-level pressure:  992.6 mb]
Winds: from the WSW (240 degrees) at 30 MPH (26 knots; 13.4 m/s)
gusting to 45 MPH (39 knots; 20.1 m/s)
Visibility: 10 or more miles (16+ km)
Ceiling: 1400 feet AGL
Clouds: few clouds at 800 feet AGL
scattered clouds at 1000 feet AGL
broken clouds at 1400 feet AGL
broken clouds at 1500 feet AGL
Weather: -SHRA  (light rain showers)

METAR text: CYYH 240000Z 23032G39KT 10SM -SHRA FEW012 SCT013 BKN016 BKN020 BKN025 07/05 A2930 RMK SC1SC2SC2SC1SC1 SLP926
Conditions at: CYYH (SPENCE BAY AIRPO, NU, CA) observed 0000 UTC 24 August 2019
Temperature: 7.0°C (45°F)
Dewpoint: 5.0°C (41°F) [RH = 87%]
Pressure (altimeter): 29.30 inches Hg (992.3 mb)
[Sea-level pressure:  992.6 mb]
Winds: from the SW (230 degrees) at 37 MPH (32 knots; 16.5 m/s)
gusting to 45 MPH (39 knots; 20.1 m/s)
Visibility: 10 or more miles (16+ km)
Ceiling: 1600 feet AGL
Clouds: few clouds at 1200 feet AGL
scattered clouds at 1300 feet AGL
broken clouds at 1600 feet AGL
broken clouds at 2000 feet AGL
Weather: -SHRA  (light rain showers)

METAR text: CYYH 232300Z 23026G36KT 10SM -SHRA FEW008 FEW010 SCT012 BKN016 BKN020 07/05 A2931 RMK SC1SC1SC2SC2SC1 SLP928
Conditions at: CYYH (SPENCE BAY AIRPO, NU, CA) observed 2300 UTC 23 August 2019
Temperature: 7.0°C (45°F)
Dewpoint: 5.0°C (41°F) [RH = 87%]
Pressure (altimeter): 29.31 inches Hg (992.6 mb)
[Sea-level pressure:  992.8 mb]
Winds: from the SW (230 degrees) at 30 MPH (26 knots; 13.4 m/s)
gusting to 41 MPH (36 knots; 18.5 m/s)
Visibility: 10 or more miles (16+ km)
Ceiling: 1600 feet AGL
Clouds: few clouds at 800 feet AGL
few clouds at 1000 feet AGL
scattered clouds at 1200 feet AGL
broken clouds at 1600 feet AGL
Weather: -SHRA  (light rain showers)

METAR text: CYYH 232231Z 23031KT 6SM -SHRA BR SCT008 BKN010 BKN012 BKN020 07/05 A2929 RMK FG2SC1SC2SC1SC1 VIS VAR 3 TO 10 SLP923
Conditions at: CYYH (SPENCE BAY AIRPO, NU, CA) observed 2231 UTC 23 August 2019
Temperature: 7.0°C (45°F)
Dewpoint: 5.0°C (41°F) [RH = 87%]
Pressure (altimeter): 29.29 inches Hg (992.0 mb)
[Sea-level pressure:  992.3 mb]
Winds: from the SW (230 degrees) at 36 MPH (31 knots; 15.9 m/s)
Visibility: 6 miles (10 km)
Ceiling: 1000 feet AGL
Clouds: scattered clouds at 800 feet AGL
broken clouds at 1000 feet AGL
broken clouds at 1200 feet AGL
broken clouds at 2000 feet AGL
Weather: -SHRA BR  (light rain showers, mist)

METAR text: CYYH 232200Z 23025G35KT 10SM -SHRA VCFG FEW009 BKN013 BKN017 BKN027 06/05 A2930 RMK FG1SC1SC3SC1SC1 VIS E 4 SLP924
Conditions at: CYYH (SPENCE BAY AIRPO, NU, CA) observed 2200 UTC 23 August 2019
Temperature: 6.0°C (43°F)
Dewpoint: 5.0°C (41°F) [RH = 93%]
Pressure (altimeter): 29.30 inches Hg (992.3 mb)
[Sea-level pressure:  992.4 mb]
Winds: from the SW (230 degrees) at 29 MPH (25 knots; 12.9 m/s)
gusting to 40 MPH (35 knots; 18.0 m/s)
Visibility: 10 or more miles (16+ km)
Ceiling: 1300 feet AGL
Clouds: few clouds at 900 feet AGL
broken clouds at 1300 feet AGL
broken clouds at 1700 feet AGL
broken clouds at 2700 feet AGL
Weather: -SHRA VCFG  (light rain showers, fog in vicinity)

METAR text: CYYH 232100Z 23027G33KT 4SM -SHRA BR SCT007 BKN009 BKN012 BKN016 07/06 A2927 RMK FG1SC2SC2SC1SC1 VIS VAR 2 TO 8 SLP914
Conditions at: CYYH (SPENCE BAY AIRPO, NU, CA) observed 2100 UTC 23 August 2019
Temperature: 7.0°C (45°F)
Dewpoint: 6.0°C (43°F) [RH = 93%]
Pressure (altimeter): 29.27 inches Hg (991.3 mb)
[Sea-level pressure:  991.4 mb]
Winds: from the SW (230 degrees) at 31 MPH (27 knots; 13.9 m/s)
gusting to 38 MPH (33 knots; 17.0 m/s)
Visibility: 4 miles ( 6 km)
Ceiling: 900 feet AGL
Clouds: scattered clouds at 700 feet AGL
broken clouds at 900 feet AGL
broken clouds at 1200 feet AGL
broken clouds at 1600 feet AGL
Weather: -SHRA BR  (light rain showers, mist)

METAR text: CYYH 232000Z 23024G31KT 4SM -RA BR BKN007 BKN009 BKN011 BKN014 07/06 A2925 RMK FG2SC3SC1SC1SC1 SC TR VIS VAR 2 TO 8 SLP909
Conditions at: CYYH (SPENCE BAY AIRPO, NU, CA) observed 2000 UTC 23 August 2019
Temperature: 7.0°C (45°F)
Dewpoint: 6.0°C (43°F) [RH = 93%]
Pressure (altimeter): 29.25 inches Hg (990.6 mb)
[Sea-level pressure:  990.9 mb]
Winds: from the SW (230 degrees) at 28 MPH (24 knots; 12.3 m/s)
gusting to 36 MPH (31 knots; 15.9 m/s)
Visibility: 4 miles ( 6 km)
Ceiling: 700 feet AGL
Clouds: broken clouds at 700 feet AGL
broken clouds at 900 feet AGL
broken clouds at 1100 feet AGL
broken clouds at 1400 feet AGL
Weather: -RA BR  (light rain, mist)

METAR text: CYYH 231940Z 23023G33KT 10SM -RA VCFG SCT007 BKN009 BKN011 BKN016 08/06 A2924 RMK FG1SC2SC2SC1SC1 VIS E 4 SLP906
Conditions at: CYYH (SPENCE BAY AIRPO, NU, CA) observed 1940 UTC 23 August 2019
Temperature: 8.0°C (46°F)
Dewpoint: 6.0°C (43°F) [RH = 87%]
Pressure (altimeter): 29.24 inches Hg (990.3 mb)
[Sea-level pressure:  990.6 mb]
Winds: from the SW (230 degrees) at 26 MPH (23 knots; 11.8 m/s)
gusting to 38 MPH (33 knots; 17.0 m/s)
Visibility: 10 or more miles (16+ km)
Ceiling: 900 feet AGL
Clouds: scattered clouds at 700 feet AGL
broken clouds at 900 feet AGL
broken clouds at 1100 feet AGL
broken clouds at 1600 feet AGL
Weather: -RA VCFG  (light rain, fog in vicinity)

METAR text: CYYH 231911Z 23023G29KT 4SM -RA BR SCT003 SCT007 BKN009 BKN013 08/07 A2923 RMK FG2ST1SC1SC2SC1 VIS VAR 2 TO 8 SLP902 DENSITY ALT 100FT
Conditions at: CYYH (SPENCE BAY AIRPO, NU, CA) observed 1911 UTC 23 August 2019
Temperature: 8.0°C (46°F)
Dewpoint: 7.0°C (45°F) [RH = 93%]
Pressure (altimeter): 29.23 inches Hg (989.9 mb)
[Sea-level pressure:  990.2 mb]
Winds: from the SW (230 degrees) at 26 MPH (23 knots; 11.8 m/s)
gusting to 33 MPH (29 knots; 14.9 m/s)
Visibility: 4 miles ( 6 km)
Ceiling: 900 feet AGL
Clouds: scattered clouds at 300 feet AGL
scattered clouds at 700 feet AGL
broken clouds at 900 feet AGL
broken clouds at 1300 feet AGL
Weather: -RA BR  (light rain, mist)

METAR text: CYYH 231900Z 24019G27KT 4SM -SHRA BR SCT003 SCT007 BKN009 BKN010 08/07 A2923 RMK FG2ST1SC1SC2SC1 VIS VAR 2 TO 8 SLP900 DENSITY ALT 200FT
Conditions at: CYYH (SPENCE BAY AIRPO, NU, CA) observed 1900 UTC 23 August 2019
Temperature: 8.0°C (46°F)
Dewpoint: 7.0°C (45°F) [RH = 93%]
Pressure (altimeter): 29.23 inches Hg (989.9 mb)
[Sea-level pressure:  990.0 mb]
Winds: from the WSW (240 degrees) at 22 MPH (19 knots; 9.8 m/s)
gusting to 31 MPH (27 knots; 13.9 m/s)
Visibility: 4 miles ( 6 km)
Ceiling: 900 feet AGL
Clouds: scattered clouds at 300 feet AGL
scattered clouds at 700 feet AGL
broken clouds at 900 feet AGL
broken clouds at 1000 feet AGL
Weather: -SHRA BR  (light rain showers, mist)

METAR text: CYYH 231810Z 24016KT 6SM -RA BR SCT003 BKN004 BKN006 BKN007 09/09 A2921 RMK FG2ST1SC2SC1SC1 VIS E 3 SLP893 DENSITY ALT 300FT
Conditions at: CYYH (SPENCE BAY AIRPO, NU, CA) observed 1810 UTC 23 August 2019
Temperature: 9.0°C (48°F)
Dewpoint: 9.0°C (48°F) [RH = 100%]
Pressure (altimeter): 29.21 inches Hg (989.2 mb)
[Sea-level pressure:  989.3 mb]
Winds: from the WSW (240 degrees) at 18 MPH (16 knots; 8.2 m/s)
Visibility: 6 miles (10 km)
Ceiling: 400 feet AGL
Clouds: scattered clouds at 300 feet AGL
broken clouds at 400 feet AGL
broken clouds at 600 feet AGL
broken clouds at 700 feet AGL
Weather: -RA BR  (light rain, mist)

METAR text: CYYH 231800Z 23017KT 4SM -RA BR SCT003 BKN004 BKN005 BKN013 09/09 A2921 RMK FG2ST2SC1SC2SC1 SC TR VIS VAR 2 TO 8 SLP893 DENSITY ALT 300FT
Conditions at: CYYH (SPENCE BAY AIRPO, NU, CA) observed 1800 UTC 23 August 2019
Temperature: 9.0°C (48°F)
Dewpoint: 9.0°C (48°F) [RH = 100%]
Pressure (altimeter): 29.21 inches Hg (989.2 mb)
[Sea-level pressure:  989.3 mb]
Winds: from the SW (230 degrees) at 20 MPH (17 knots; 8.7 m/s)
Visibility: 4 miles ( 6 km)
Ceiling: 400 feet AGL
Clouds: scattered clouds at 300 feet AGL
broken clouds at 400 feet AGL
broken clouds at 500 feet AGL
broken clouds at 1300 feet AGL
Weather: -RA BR  (light rain, mist)

METAR text: CYYH 231700Z 20023G30KT 4SM -SHRA SCT004 BKN006 BKN007 BKN010 11/10 A2920 RMK RA2SC1SC2SC1SC1 VIS VAR 2 TO 8 SLP892 DENSITY ALT 400FT
Conditions at: CYYH (SPENCE BAY AIRPO, NU, CA) observed 1700 UTC 23 August 2019
Temperature: 11.0°C (52°F)
Dewpoint: 10.0°C (50°F) [RH = 94%]
Pressure (altimeter): 29.20 inches Hg (988.9 mb)
[Sea-level pressure:  989.2 mb]
Winds: from the SSW (200 degrees) at 26 MPH (23 knots; 11.8 m/s)
gusting to 34 MPH (30 knots; 15.4 m/s)
Visibility: 4 miles ( 6 km)
Ceiling: 600 feet AGL
Clouds: scattered clouds at 400 feet AGL
broken clouds at 600 feet AGL
broken clouds at 700 feet AGL
broken clouds at 1000 feet AGL
Weather: -SHRA  (light rain showers)

METAR text: CYYH 231613Z 18025KT 4SM -SHRA SCT006 BKN007 BKN015 BKN021 11/10 A2921 RMK RA2SC2SC1SC2SC1 SC TR VIS VAR 2 TO 10 CIG RAG SLP894 DENSITY ALT 500FT
Conditions at: CYYH (SPENCE BAY AIRPO, NU, CA) observed 1613 UTC 23 August 2019
Temperature: 11.0°C (52°F)
Dewpoint: 10.0°C (50°F) [RH = 94%]
Pressure (altimeter): 29.21 inches Hg (989.2 mb)
[Sea-level pressure:  989.4 mb]
Winds: from the S (180 degrees) at 29 MPH (25 knots; 12.9 m/s)
Visibility: 4 miles ( 6 km)
Ceiling: 700 feet AGL
Clouds: scattered clouds at 600 feet AGL
broken clouds at 700 feet AGL
broken clouds at 1500 feet AGL
broken clouds at 2100 feet AGL
Weather: -SHRA  (light rain showers)

METAR text: CYYH 231600Z 17022G31KT 15SM -RA VCSH FEW007 FEW010 FEW012 BKN015 BKN019 11/10 A2921 RMK RA1SC1SC1SC1SC3SC2 SC TR SC TR VIS E 4 CIG RAG SLP896 DENSITY ALT 500FT
Conditions at: CYYH (SPENCE BAY AIRPO, NU, CA) observed 1600 UTC 23 August 2019
Temperature: 11.0°C (52°F)
Dewpoint: 10.0°C (50°F) [RH = 94%]
Pressure (altimeter): 29.21 inches Hg (989.2 mb)
[Sea-level pressure:  989.6 mb]
Winds: from the S (170 degrees) at 25 MPH (22 knots; 11.3 m/s)
gusting to 36 MPH (31 knots; 15.9 m/s)
Visibility: 15 miles (24 km)
Ceiling: 1500 feet AGL
Clouds: few clouds at 700 feet AGL
few clouds at 1000 feet AGL
few clouds at 1200 feet AGL
broken clouds at 1500 feet AGL
Weather: -RA VCSH  (light rain, showers in vicinity)

METAR text: CYYH 231500Z 18027KT 15SM -RA VCSH FEW014 SCT015 BKN016 BKN017 BKN018 12/10 A2923 RMK SC1SC2SC2SC1SC1 CIG RAG SLP900 DENSITY ALT 500FT
Conditions at: CYYH (SPENCE BAY AIRPO, NU, CA) observed 1500 UTC 23 August 2019
Temperature: 12.0°C (54°F)
Dewpoint: 10.0°C (50°F) [RH = 88%]
Pressure (altimeter): 29.23 inches Hg (989.9 mb)
[Sea-level pressure:  990.0 mb]
Winds: from the S (180 degrees) at 31 MPH (27 knots; 13.9 m/s)
Visibility: 15 miles (24 km)
Ceiling: 1600 feet AGL
Clouds: few clouds at 1400 feet AGL
scattered clouds at 1500 feet AGL
broken clouds at 1600 feet AGL
broken clouds at 1700 feet AGL
Weather: -RA VCSH  (light rain, showers in vicinity)

METAR text: CYYH 231400Z 18026G32KT 15SM -RA FEW013 SCT014 BKN015 BKN016 BKN024 11/10 A2924 RMK SC1SC2SC2SC1SC1 CIG RAG SLP906 DENSITY ALT 500FT
Conditions at: CYYH (SPENCE BAY AIRPO, NU, CA) observed 1400 UTC 23 August 2019
Temperature: 11.0°C (52°F)
Dewpoint: 10.0°C (50°F) [RH = 94%]
Pressure (altimeter): 29.24 inches Hg (990.3 mb)
[Sea-level pressure:  990.6 mb]
Winds: from the S (180 degrees) at 30 MPH (26 knots; 13.4 m/s)
gusting to 37 MPH (32 knots; 16.5 m/s)
Visibility: 15 miles (24 km)
Ceiling: 1500 feet AGL
Clouds: few clouds at 1300 feet AGL
scattered clouds at 1400 feet AGL
broken clouds at 1500 feet AGL
broken clouds at 1600 feet AGL
Weather: -RA  (light rain)

METAR text: CYYH 231349Z 18026G31KT 15SM -RA FEW013 BKN014 BKN016 BKN017 11/10 A2925 RMK SC2SC3SC1SC1 SLP907 DENSITY ALT 500FT
Conditions at: CYYH (SPENCE BAY AIRPO, NU, CA) observed 1349 UTC 23 August 2019
Temperature: 11.0°C (52°F)
Dewpoint: 10.0°C (50°F) [RH = 94%]
Pressure (altimeter): 29.25 inches Hg (990.6 mb)
[Sea-level pressure:  990.7 mb]
Winds: from the S (180 degrees) at 30 MPH (26 knots; 13.4 m/s)
gusting to 36 MPH (31 knots; 15.9 m/s)
Visibility: 15 miles (24 km)
Ceiling: 1400 feet AGL
Clouds: few clouds at 1300 feet AGL
broken clouds at 1400 feet AGL
broken clouds at 1600 feet AGL
broken clouds at 1700 feet AGL
Weather: -RA  (light rain)

METAR text: CYYH 230200Z 15016G21KT 15SM FEW160 FEW170 SCT230 BKN260 13/07 A2950 RMK AC1AC1CI1CI4 LAST OBS NXT OBS AT 1500Z SLP992 DENSITY ALT 400FT
Conditions at: CYYH (SPENCE BAY AIRPO, NU, CA) observed 0200 UTC 23 August 2019
Temperature: 13.0°C (55°F)
Dewpoint: 7.0°C (45°F) [RH = 67%]
Pressure (altimeter): 29.50 inches Hg (999.1 mb)
[Sea-level pressure:  999.2 mb]
Winds: from the SSE (150 degrees) at 18 MPH (16 knots; 8.2 m/s)
gusting to 24 MPH (21 knots; 10.8 m/s)
Visibility: 15 miles (24 km)
Ceiling: 26000 feet AGL
Clouds: few clouds at 16000 feet AGL
few clouds at 17000 feet AGL
scattered clouds at 23000 feet AGL
broken clouds at 26000 feet AGL
Weather: no significant weather observed at this time